CDT,Max TemperatureF,Mean TemperatureF,Min TemperatureF,Max Dew PointF,MeanDew PointF,Min DewpointF,Max Humidity, Mean Humidity, Min Humidity, Max Sea Level PressureIn, Mean Sea Level PressureIn, Min Sea Level PressureIn, Max VisibilityMiles, Mean VisibilityMiles, Min VisibilityMiles, Max Wind SpeedMPH, Mean Wind SpeedMPH, Max Gust SpeedMPH,PrecipitationIn, CloudCover, Events, WindDirDegrees
2013-10-1,78,70,64,69,67,64,100,90,74,30.06,30.02,29.98,10,8,2,14,6,,0.00,5,,186
2013-10-2,81,74,66,74,70,66,100,94,70,30.10,30.05,30.01,10,6,0,10,4,,0.00,5,Fog-Rain-Thunderstorm,166
2013-10-3,86,77,69,70,68,66,100,81,55,30.03,29.99,29.93,10,9,4,16,6,22,0.00,3,Rain,176
2013-10-4,86,77,68,72,69,66,100,79,57,30.03,30.00,29.96,10,9,4,16,6,21,0.00,2,,168
2013-10-5,82,72,63,73,71,64,100,94,72,30.00,29.94,29.83,10,9,1,15,7,40,0.55,5,Rain-Thunderstorm,186
2013-10-6,64,56,49,58,48,40,94,71,48,29.91,29.87,29.82,10,10,7,18,9,28,0.00,4,Rain,253
2013-10-7,68,58,48,51,48,44,100,76,48,30.16,30.04,29.89,10,10,10,14,7,20,0.00,3,,286
2013-10-8,72,58,45,54,50,46,100,76,44,30.23,30.18,30.15,10,9,1,8,1,,0.00,0,,114
2013-10-9,75,61,47,58,52,46,100,76,48,30.21,30.16,30.12,10,9,0,6,1,,0.00,0,,112
2013-10-10,79,64,51,63,59,52,100,82,52,30.17,30.11,30.04,10,8,0,6,1,,0.00,2,Fog,134
2013-10-11,81,69,58,62,58,56,100,73,44,30.08,30.02,29.97,10,10,5,12,4,17,0.00,1,,148
2013-10-12,71,65,59,68,62,52,100,90,76,30.19,30.06,29.99,10,7,0,8,4,,0.01,4,Fog-Rain-Thunderstorm,172
2013-10-13,74,60,46,51,42,37,90,57,27,30.38,30.31,30.20,10,9,3,13,6,17,0.00,0,,14
2013-10-14,70,58,47,54,46,36,80,64,49,30.35,30.25,30.11,10,10,2,8,5,,0.00,0,,77
2013-10-15,67,64,60,67,61,52,100,90,75,30.10,29.98,29.91,10,7,2,14,7,21,0.04,7,Rain,176
2013-10-16,61,53,45,52,46,42,90,74,56,30.04,30.00,29.96,10,10,7,13,8,21,0.00,3,,297
2013-10-17,61,52,44,49,46,42,99,82,49,30.02,29.98,29.94,10,10,10,13,4,24,0.00,5,Rain,237
2013-10-18,63,53,43,48,45,42,95,76,52,30.05,30.00,29.97,10,10,10,12,5,18,0.00,1,Rain,268
2013-10-19,57,49,41,46,40,34,99,77,43,30.01,29.98,29.96,10,10,5,17,7,22,0.01,4,Rain,268
2013-10-20,68,54,40,45,42,38,91,67,39,30.00,29.96,29.91,10,10,10,21,10,32,0.00,0,,190
2013-10-21,55,46,37,48,43,35,95,78,64,30.07,30.00,29.95,10,10,10,12,7,,0.00,4,Rain,254
2013-10-22,57,44,32,47,38,32,100,80,48,30.08,29.97,29.82,10,9,3,20,4,26,0.02,5,Rain,207
2013-10-23,49,43,38,39,34,28,93,72,48,30.13,30.06,29.92,10,10,7,18,11,25,0.00,6,Rain,299
2013-10-24,46,39,31,38,30,24,92,68,43,30.40,30.25,30.12,10,10,10,18,7,28,0.00,7,,306
2013-10-25,52,40,27,33,28,26,98,68,37,30.52,30.41,30.25,10,10,10,9,2,,0.00,0,,212
2013-10-26,64,50,37,43,35,29,76,57,43,30.25,30.11,29.99,10,10,10,18,10,28,0.00,2,,243
2013-10-27,59,46,32,36,32,29,96,69,32,30.14,30.09,30.05,10,9,4,7,1,,0.00,0,,255
2013-10-28,67,50,32,41,37,31,100,67,34,30.27,30.19,30.08,10,8,1,7,1,,0.00,0,,122
2013-10-29,57,51,45,57,46,35,100,82,56,30.29,30.21,30.10,10,5,1,8,4,,0.01,5,Rain,117
2013-10-30,75,66,57,69,62,57,100,90,71,30.10,30.03,29.90,10,6,0,15,4,20,0.00,7,Fog-Rain,167
2013-10-31,67,60,52,66,62,50,100,96,89,29.89,29.61,29.38,10,8,2,21,12,32,0.63,8,Rain,199